Time;durP1;ratioP1;P1;durP2;ratioP2;P2;SDS_P1;SDS_P2;PMS_P1;PMS_P2;Temp;Humidity;BMP_temperature;BMP_pressure;BME280_temperature;BME280_humidity;BME280_pressure;Samples;Min_cycle;Max_cycle;Signal;HPM_P1;HPM_P2
2021/12/15 00:02:03;;;;;;;34.13;18.83;;;9.90;99.90;;;;;;4783911;29;20053;-79
2021/12/15 00:04:57;;;;;;;30.48;18.23;;;9.90;99.90;;;;;;4785631;29;20046;-79
2021/12/15 00:08:07;;;;;;;34.47;18.67;;;9.90;99.90;;;;;;4771519;29;20201;-79
2021/12/15 00:10:56;;;;;;;33.67;18.58;;;9.90;99.90;;;;;;4787819;29;20054;-79
2021/12/15 00:14:18;;;;;;;34.17;17.48;;;9.90;99.90;;;;;;4792655;29;20066;-79
2021/12/15 00:17:04;;;;;;;37.22;17.55;;;9.80;99.90;;;;;;4767427;29;20051;-78
2021/12/15 00:19:49;;;;;;;30.17;16.75;;;9.90;99.90;;;;;;4801135;29;20059;-77
2021/12/15 00:22:53;;;;;;;34.17;18.08;;;9.90;99.90;;;;;;4763918;30;20052;-77
2021/12/15 00:25:34;;;;;;;33.42;18.17;;;9.90;99.90;;;;;;4756034;30;20149;-77
2021/12/15 00:28:09;;;;;;;35.90;17.52;;;9.90;99.90;;;;;;4772132;29;20544;-77
2021/12/15 00:30:42;;;;;;;31.58;17.27;;;9.90;99.90;;;;;;4785096;29;20079;-77
2021/12/15 00:33:13;;;;;;;36.35;18.20;;;9.90;99.90;;;;;;4787380;29;20138;-77
2021/12/15 00:35:49;;;;;;;33.15;17.38;;;9.90;99.90;;;;;;4786568;29;20047;-77
2021/12/15 00:38:21;;;;;;;38.30;17.63;;;9.90;99.90;;;;;;4781612;29;20039;-77
2021/12/15 00:41:16;;;;;;;30.02;17.05;;;9.90;99.90;;;;;;4768521;29;20043;-77
2021/12/15 00:43:56;;;;;;;30.05;17.13;;;9.90;99.90;;;;;;4786499;29;20063;-77
2021/12/15 00:47:02;;;;;;;37.70;17.88;;;9.90;99.90;;;;;;4801079;29;20051;-77
2021/12/15 00:50:06;;;;;;;;;;;;;;;;;;;;;
2021/12/15 00:52:59;;;;;;;32.28;17.50;;;9.90;99.90;;;;;;4791198;29;20058;-77
2021/12/15 00:55:28;;;;;;;34.05;16.90;;;9.90;99.90;;;;;;4805531;29;20232;-77
2021/12/15 00:58:04;;;;;;;34.95;17.92;;;9.90;99.90;;;;;;4811856;29;20058;-77
2021/12/15 01:00:44;;;;;;;36.97;17.63;;;9.90;99.90;;;;;;4805278;29;20061;-77
2021/12/15 01:03:12;;;;;;;;;;;9.90;99.90;;;;;;4816920;29;20046;-77
2021/12/15 01:06:04;;;;;;;27.45;15.85;;;10.00;99.90;;;;;;4812254;29;19997;-77
2021/12/15 01:09:02;;;;;;;32.25;16.70;;;10.00;99.90;;;;;;4815296;29;20081;-77
2021/12/15 01:21:06;;;;;;;36.40;18.83;;;10.00;99.90;;;;;;4813812;29;20562;-77
2021/12/15 01:23:42;;;;;;;30.33;18.02;;;10.00;99.90;;;;;;4810386;29;20046;-77
2021/12/15 01:26:19;;;;;;;30.77;16.52;;;10.00;99.90;;;;;;4810050;29;20039;-77
2021/12/15 01:28:53;;;;;;;26.67;16.73;;;10.00;99.90;;;;;;4805709;29;20039;-77
2021/12/15 01:31:33;;;;;;;33.15;16.88;;;10.00;99.90;;;;;;4829811;29;20569;-77
2021/12/15 01:34:11;;;;;;;32.60;18.25;;;10.00;99.90;;;;;;4772277;29;20054;-78
2021/12/15 01:36:57;;;;;;;28.67;17.45;;;10.00;99.90;;;;;;4786395;29;20066;-77
2021/12/15 01:39:55;;;;;;;26.38;15.65;;;10.00;99.90;;;;;;4785798;29;20602;-77
2021/12/15 01:42:41;;;;;;;32.70;17.45;;;10.00;99.90;;;;;;4785756;29;20282;-77
2021/12/15 01:48:15;;;;;;;31.38;17.77;;;9.90;99.90;;;;;;4802771;29;20522;-77
2021/12/15 01:51:17;;;;;;;30.70;17.77;;;10.00;99.90;;;;;;4768841;29;20041;-77
2021/12/15 01:54:05;;;;;;;35.40;19.83;;;10.00;99.90;;;;;;4787622;29;20059;-77
2021/12/15 01:57:04;;;;;;;32.28;18.83;;;10.00;99.90;;;;;;4786940;29;20488;-77
2021/12/15 01:59:47;;;;;;;32.28;19.45;;;10.00;99.90;;;;;;4785908;29;20070;-77
2021/12/15 02:02:20;;;;;;;30.95;18.83;;;10.00;99.90;;;;;;4784595;29;20047;-77
2021/12/15 02:04:57;;;;;;;38.55;20.45;;;10.00;99.90;;;;;;4778435;29;20133;-77
2021/12/15 02:07:33;;;;;;;32.65;19.38;;;10.10;99.90;;;;;;4772082;29;20065;-77
2021/12/15 02:10:07;;;;;;;33.15;19.80;;;10.00;99.90;;;;;;4810982;29;20042;-77
2021/12/15 02:12:58;;;;;;;34.72;19.42;;;10.00;99.90;;;;;;4818455;29;20062;-77
2021/12/15 02:15:45;;;;;;;35.83;19.02;;;10.00;99.90;;;;;;4808332;29;20061;-77
2021/12/15 02:18:24;;;;;;;31.65;19.35;;;10.00;99.90;;;;;;4813440;29;20113;-77
2021/12/15 02:21:27;;;;;;;32.47;19.23;;;10.10;99.90;;;;;;4814586;29;20534;-78
2021/12/15 02:24:36;;;;;;;34.13;20.02;;;10.00;99.90;;;;;;4804722;29;20082;-78
2021/12/15 02:27:28;;;;;;;34.55;19.63;;;10.10;99.90;;;;;;4818155;29;20050;-77
2021/12/15 02:30:24;;;;;;;25.75;16.77;;;10.00;99.90;;;;;;4822589;29;20050;-78
2021/12/15 02:39:05;;;;;;;32.50;19.27;;;10.10;99.90;;;;;;4810518;29;20226;-78
2021/12/15 02:41:41;;;;;;;34.72;21.00;;;10.10;99.90;;;;;;4801000;29;20463;-77
2021/12/15 02:47:47;;;;;;;31.58;18.23;;;10.10;99.90;;;;;;4800626;29;20118;-77
2021/12/15 02:50:27;;;;;;;33.50;20.02;;;10.10;99.90;;;;;;4792930;29;20118;-77
2021/12/15 02:52:59;;;;;;;33.40;20.42;;;10.10;99.90;;;;;;4773788;29;20039;-78
2021/12/15 02:56:07;;;;;;;;;;;;;;;;;;;;;
2021/12/15 02:59:01;;;;;;;31.77;19.40;;;10.10;99.90;;;;;;4802894;29;20146;-78
2021/12/15 03:07:36;;;;;;;35.75;21.05;;;10.10;99.90;;;;;;4794798;29;20401;-77
2021/12/15 03:16:32;;;;;;;33.78;20.27;;;10.10;99.90;;;;;;4813820;29;20086;-77
2021/12/15 03:19:07;;;;;;;39.05;21.73;;;10.10;99.90;;;;;;4822000;29;20051;-77
2021/12/15 03:21:51;;;;;;;35.72;21.50;;;10.10;99.90;;;;;;4819309;29;20073;-77
2021/12/15 03:24:49;;;;;;;34.92;21.35;;;10.10;99.90;;;;;;4814891;29;20069;-77
2021/12/15 03:33:53;;;;;;;34.72;19.65;;;10.10;99.90;;;;;;4793417;29;20764;-77
2021/12/15 03:37:21;;;;;;;;;;;10.10;99.90;;;;;;4774207;29;20104;-77
2021/12/15 03:39:33;;;;;;;40.40;23.02;;;10.10;99.90;;;;;;4781699;29;20000;-77
2021/12/15 03:42:16;;;;;;;31.05;20.70;;;10.10;99.90;;;;;;4774151;29;20061;-77
2021/12/15 03:44:50;;;;;;;38.15;21.05;;;10.10;99.90;;;;;;4771054;29;20059;-77
2021/12/15 03:47:31;;;;;;;36.35;21.55;;;10.10;99.90;;;;;;4781922;29;20046;-76
2021/12/15 03:53:23;;;;;;;35.00;21.33;;;10.10;99.90;;;;;;4783334;29;20118;-77
2021/12/15 03:56:12;;;;;;;33.30;20.63;;;10.10;99.90;;;;;;4771145;29;20076;-77
2021/12/15 03:58:52;;;;;;;35.60;22.23;;;10.10;99.90;;;;;;4777571;29;20101;-77
2021/12/15 04:01:30;;;;;;;36.17;20.88;;;10.10;99.90;;;;;;4767801;30;20051;-77
2021/12/15 04:04:02;;;;;;;40.22;22.85;;;10.10;99.90;;;;;;4756688;30;20582;-77
2021/12/15 04:06:38;;;;;;;38.78;23.40;;;10.10;99.90;;;;;;4740545;30;20571;-77
2021/12/15 04:09:23;;;;;;;35.65;21.42;;;10.10;99.90;;;;;;4763712;30;20396;-77
2021/12/15 04:12:18;;;;;;;41.35;22.02;;;10.10;99.90;;;;;;4777302;29;20059;-76
2021/12/15 04:15:19;;;;;;;35.40;21.63;;;10.10;99.90;;;;;;4767757;30;20043;-76
2021/12/15 04:17:51;;;;;;;35.97;21.77;;;10.10;99.90;;;;;;4740905;30;20055;-77
2021/12/15 04:20:39;;;;;;;34.47;20.85;;;10.10;99.90;;;;;;4748043;30;20688;-77
2021/12/15 04:27:02;;;;;;;34.70;20.17;;;10.20;99.90;;;;;;4743033;30;20519;-77
2021/12/15 04:29:59;;;;;;;35.40;21.50;;;10.10;99.90;;;;;;4770851;29;20149;-77
2021/12/15 04:32:43;;;;;;;35.92;20.38;;;10.10;99.90;;;;;;4770460;29;20511;-77
2021/12/15 04:35:49;;;;;;;35.20;19.65;;;10.10;99.90;;;;;;4772488;29;20129;-77
2021/12/15 04:38:40;;;;;;;31.58;19.27;;;10.10;99.90;;;;;;4772296;29;20054;-77
2021/12/15 04:41:46;;;;;;;34.30;20.63;;;10.10;99.90;;;;;;4805030;29;20788;-77
2021/12/15 04:44:45;;;;;;;34.38;19.83;;;10.10;99.90;;;;;;4805060;29;20549;-77
2021/12/15 04:47:31;;;;;;;36.10;20.23;;;10.10;99.90;;;;;;4801021;29;20530;-77
2021/12/15 04:50:19;;;;;;;30.95;19.27;;;10.10;99.90;;;;;;4793032;29;20046;-77
2021/12/15 04:52:52;;;;;;;35.75;20.80;;;10.10;99.90;;;;;;4776529;29;20062;-77
2021/12/15 04:55:41;;;;;;;31.67;19.05;;;10.10;99.90;;;;;;4766889;29;20623;-77
2021/12/15 04:58:20;;;;;;;34.90;19.95;;;10.10;99.90;;;;;;4803173;29;20099;-76
2021/12/15 05:00:55;;;;;;;30.42;17.92;;;10.10;99.90;;;;;;4771067;30;20557;-73
2021/12/15 05:03:21;;;;;;;30.80;18.85;;;10.10;99.90;;;;;;4771234;29;20055;-73
2021/12/15 05:05:47;;;;;;;;;;;10.10;99.90;;;;;;4785653;29;20130;-74
2021/12/15 05:08:13;;;;;;;34.80;20.70;;;10.10;99.90;;;;;;4799207;29;20020;-73
2021/12/15 05:10:39;;;;;;;32.80;18.88;;;10.10;99.90;;;;;;4783509;29;20140;-73
2021/12/15 05:13:05;;;;;;;;;;;10.00;99.90;;;;;;4769264;29;20391;-73
2021/12/15 05:15:32;;;;;;;36.38;20.83;;;10.00;99.90;;;;;;4768512;30;19921;-73
2021/12/15 05:17:58;;;;;;;41.97;22.73;;;10.00;99.90;;;;;;4768061;30;20560;-73
2021/12/15 05:20:25;;;;;;;36.80;21.73;;;10.00;99.90;;;;;;4800861;29;20050;-72
2021/12/15 05:22:51;;;;;;;35.65;21.75;;;10.10;99.90;;;;;;4785345;29;20066;-73
2021/12/15 05:25:17;;;;;;;41.50;23.30;;;10.00;99.90;;;;;;4769062;29;20068;-72
2021/12/15 05:27:43;;;;;;;37.80;21.63;;;10.00;99.90;;;;;;4785878;29;20050;-73
2021/12/15 05:30:12;;;;;;;34.63;19.30;;;10.00;99.90;;;;;;4800898;29;20564;-73
2021/12/15 05:32:39;;;;;;;36.50;20.27;;;10.00;99.90;;;;;;4835391;29;20051;-73
2021/12/15 05:35:06;;;;;;;41.70;21.85;;;10.00;99.90;;;;;;4820772;29;20746;-73
2021/12/15 05:37:32;;;;;;;41.53;22.27;;;10.10;99.90;;;;;;4817443;29;20054;-72
2021/12/15 05:39:59;;;;;;;37.88;20.35;;;10.10;99.90;;;;;;4817466;29;20050;-73
2021/12/15 05:42:26;;;;;;;;;;;10.00;99.90;;;;;;4821778;29;20086;-73
2021/12/15 05:44:53;;;;;;;39.38;21.88;;;10.00;99.90;;;;;;4825338;29;20056;-73
2021/12/15 05:47:19;;;;;;;;;;;10.00;99.90;;;;;;4824511;29;20038;-76
2021/12/15 05:49:46;;;;;;;36.55;20.02;;;10.00;99.90;;;;;;4818774;29;19932;-74
2021/12/15 05:52:12;;;;;;;34.70;20.05;;;10.00;99.90;;;;;;4818651;29;20174;-74
2021/12/15 05:54:38;;;;;;;;;;;10.00;99.90;;;;;;4817105;29;20057;-74
2021/12/15 05:57:05;;;;;;;37.60;20.60;;;10.10;99.90;;;;;;4836154;29;20579;-74
2021/12/15 05:59:31;;;;;;;38.80;22.15;;;10.10;99.90;;;;;;4814735;29;20081;-75
2021/12/15 06:01:57;;;;;;;37.00;21.02;;;10.10;99.90;;;;;;4822210;29;20130;-76
2021/12/15 06:04:23;;;;;;;41.42;21.42;;;10.10;99.90;;;;;;4822782;29;20188;-75
2021/12/15 06:06:49;;;;;;;39.97;21.73;;;10.00;99.90;;;;;;4830808;29;20053;-76
2021/12/15 06:09:14;;;;;;;37.35;21.00;;;10.10;99.90;;;;;;4810148;29;20053;-76
2021/12/15 06:11:42;;;;;;;40.03;21.50;;;10.10;99.90;;;;;;4811326;29;20568;-75
2021/12/15 06:14:08;;;;;;;39.83;21.15;;;10.10;99.90;;;;;;4824183;29;20362;-76
2021/12/15 06:16:35;;;;;;;41.65;21.38;;;10.10;99.90;;;;;;4822032;29;20060;-76
2021/12/15 06:19:02;;;;;;;34.13;19.77;;;10.10;99.90;;;;;;4822259;29;20082;-74
2021/12/15 06:21:28;;;;;;;36.78;20.67;;;10.10;99.90;;;;;;4818486;29;20062;-76
2021/12/15 06:23:54;;;;;;;39.97;20.77;;;10.10;99.90;;;;;;4819639;29;20084;-78
2021/12/15 06:26:20;;;;;;;35.83;20.08;;;10.10;99.90;;;;;;4818293;29;20052;-77
2021/12/15 06:28:47;;;;;;;35.55;20.52;;;10.10;99.90;;;;;;4818587;29;20058;-77
2021/12/15 06:31:15;;;;;;;39.40;21.13;;;10.10;99.90;;;;;;4815061;29;20081;-77
2021/12/15 06:33:43;;;;;;;36.40;20.65;;;10.10;99.90;;;;;;4818482;29;20060;-77
2021/12/15 06:36:09;;;;;;;36.63;20.70;;;10.20;99.90;;;;;;4822628;29;20050;-77
2021/12/15 06:38:39;;;;;;;35.50;20.90;;;10.10;99.90;;;;;;4807230;29;20121;-77
2021/12/15 06:41:07;;;;;;;38.10;20.73;;;10.10;99.90;;;;;;4822189;29;20046;-77
2021/12/15 06:43:34;;;;;;;38.08;20.92;;;10.20;99.90;;;;;;4822434;29;20042;-77
2021/12/15 06:59:27;;;;;;;30.63;17.23;;;10.10;99.90;;;;;;4822322;29;20121;-79
2021/12/15 07:01:53;;;;;;;35.58;19.70;;;10.20;99.90;;;;;;4807913;29;20054;-79
2021/12/15 07:04:20;;;;;;;38.47;20.33;;;10.20;99.90;;;;;;4822910;29;20050;-79
2021/12/15 07:06:47;;;;;;;30.73;18.17;;;10.20;99.90;;;;;;4821906;29;20047;-74
2021/12/15 07:09:13;;;;;;;35.63;19.63;;;10.20;99.90;;;;;;4835372;29;20183;-75
2021/12/15 07:11:39;;;;;;;31.75;19.05;;;10.20;99.90;;;;;;4826879;29;20058;-79
2021/12/15 07:14:05;;;;;;;32.33;18.63;;;10.20;99.90;;;;;;4823394;29;20398;-77
2021/12/15 07:16:33;;;;;;;29.48;17.98;;;10.20;99.90;;;;;;4815245;29;20116;-77
2021/12/15 07:19:09;;;;;;;31.50;18.60;;;10.20;99.90;;;;;;4807087;29;20042;-77
2021/12/15 07:21:38;;;;;;;32.92;18.17;;;10.20;99.90;;;;;;4819846;29;20093;-76
2021/12/15 07:24:06;;;;;;;32.75;17.15;;;10.20;99.90;;;;;;4828337;29;20493;-76
2021/12/15 07:26:32;;;;;;;30.60;18.70;;;10.20;99.90;;;;;;4825549;29;20400;-76
2021/12/15 07:28:58;;;;;;;;;;;10.20;99.90;;;;;;4824722;29;20082;-75
2021/12/15 07:31:24;;;;;;;31.52;18.17;;;10.20;99.90;;;;;;4829176;29;19967;-75
2021/12/15 07:33:49;;;;;;;28.85;16.33;;;10.20;99.90;;;;;;4812637;29;20514;-75
2021/12/15 07:36:16;;;;;;;33.85;17.95;;;10.20;99.90;;;;;;4839108;29;20493;-76
2021/12/15 07:38:42;;;;;;;;;;;10.20;99.90;;;;;;4807307;29;20504;-76
2021/12/15 07:41:42;;;;;;;31.42;16.77;;;10.10;99.90;;;;;;4819897;29;19973;-76
2021/12/15 07:44:06;;;;;;;27.77;16.73;;;10.20;99.90;;;;;;4824479;29;20080;-75
2021/12/15 07:46:32;;;;;;;32.85;17.80;;;10.20;99.90;;;;;;4825141;29;20077;-76
2021/12/15 07:48:58;;;;;;;31.55;16.20;;;10.20;99.90;;;;;;4805230;29;20584;-76
2021/12/15 07:51:24;;;;;;;29.35;16.08;;;10.20;99.90;;;;;;4822252;29;20061;-76
2021/12/15 07:53:50;;;;;;;27.73;15.98;;;10.20;99.90;;;;;;4824698;29;20058;-75
2021/12/15 07:56:17;;;;;;;32.53;16.65;;;10.20;99.90;;;;;;4823055;29;20425;-77
2021/12/15 07:58:43;;;;;;;28.67;15.88;;;10.20;99.90;;;;;;4827036;29;20423;-78
2021/12/15 08:01:09;;;;;;;27.98;14.60;;;10.20;99.90;;;;;;4823900;29;20041;-78
2021/12/15 08:03:38;;;;;;;30.40;15.57;;;10.20;99.90;;;;;;4822830;29;20046;-78
2021/12/15 08:06:06;;;;;;;26.50;15.10;;;10.20;99.90;;;;;;4837721;29;20038;-76
2021/12/15 08:08:31;;;;;;;26.38;14.68;;;10.30;99.90;;;;;;4821926;29;20054;-75
2021/12/15 08:10:57;;;;;;;23.77;13.85;;;10.30;99.90;;;;;;4818634;29;20061;-75
2021/12/15 08:13:27;;;;;;;25.10;13.02;;;10.20;99.90;;;;;;4820770;29;20499;-75
2021/12/15 08:15:53;;;;;;;24.60;13.30;;;10.30;99.90;;;;;;4805171;29;20170;-76
2021/12/15 08:18:20;;;;;;;22.73;12.27;;;10.20;99.90;;;;;;4818260;29;20146;-76
2021/12/15 08:20:46;;;;;;;22.52;12.07;;;10.20;99.90;;;;;;4817161;29;20039;-76
2021/12/15 08:23:13;;;;;;;21.08;11.52;;;10.20;99.90;;;;;;4821677;29;20114;-78
2021/12/15 08:25:41;;;;;;;19.60;10.90;;;10.20;99.90;;;;;;4821863;29;20381;-78
2021/12/15 08:28:08;;;;;;;22.85;11.20;;;10.20;99.90;;;;;;4839903;29;20050;-77
2021/12/15 08:30:35;;;;;;;24.15;10.80;;;10.20;99.90;;;;;;4827034;29;20038;-76
2021/12/15 08:33:05;;;;;;;20.25;10.90;;;10.20;99.90;;;;;;4821645;29;20058;-76
2021/12/15 08:35:42;;;;;;;21.52;10.57;;;10.10;99.90;;;;;;4820151;29;20054;-74
2021/12/15 08:38:09;;;;;;;21.25;11.23;;;10.10;99.90;;;;;;4817799;29;20049;-75
2021/12/15 08:40:36;;;;;;;20.42;11.52;;;10.10;99.90;;;;;;4824396;29;20061;-74
2021/12/15 08:43:03;;;;;;;21.02;10.85;;;10.10;99.90;;;;;;4820366;29;20081;-78
2021/12/15 08:45:29;;;;;;;18.85;11.23;;;10.20;99.90;;;;;;4822532;29;20070;-75
2021/12/15 08:47:57;;;;;;;;;;;10.20;99.90;;;;;;4817537;29;20084;-75
2021/12/15 08:50:29;;;;;;;15.43;10.50;;;10.20;99.90;;;;;;4809846;29;20367;-75
2021/12/15 08:52:56;;;;;;;22.75;12.15;;;10.20;99.90;;;;;;4816427;29;20078;-75
2021/12/15 08:55:23;;;;;;;19.63;11.48;;;10.20;99.90;;;;;;4827596;29;20057;-75
2021/12/15 08:57:52;;;;;;;21.23;11.60;;;10.20;99.90;;;;;;4836198;29;20054;-75
2021/12/15 09:00:19;;;;;;;23.45;11.88;;;10.20;99.90;;;;;;4820513;29;20136;-75
2021/12/15 09:02:46;;;;;;;18.88;11.25;;;10.30;99.90;;;;;;4841371;29;20054;-75
2021/12/15 09:05:13;;;;;;;20.55;11.30;;;10.30;99.90;;;;;;4817853;29;20091;-75
2021/12/15 09:07:44;;;;;;;20.73;11.23;;;10.30;99.90;;;;;;4825674;29;20054;-75
2021/12/15 09:10:10;;;;;;;21.23;10.88;;;10.30;99.90;;;;;;4815663;29;20495;-74
2021/12/15 09:12:37;;;;;;;;;;;10.30;99.90;;;;;;4808368;29;20102;-74
2021/12/15 09:15:03;;;;;;;21.63;11.00;;;10.30;99.90;;;;;;4785473;29;19995;-74
2021/12/15 09:17:30;;;;;;;23.10;11.25;;;10.30;99.90;;;;;;4811060;29;20190;-74
2021/12/15 09:19:55;;;;;;;20.33;11.63;;;10.30;99.90;;;;;;4819785;29;20053;-74
2021/12/15 09:22:21;;;;;;;20.15;10.60;;;10.30;99.90;;;;;;4817372;29;20119;-74
2021/12/15 09:24:47;;;;;;;21.98;11.57;;;10.30;99.90;;;;;;4814495;29;20046;-74
2021/12/15 09:27:12;;;;;;;22.38;11.52;;;10.30;99.90;;;;;;4815544;29;20138;-74
2021/12/15 09:29:38;;;;;;;26.25;10.85;;;10.30;99.90;;;;;;4817045;29;20053;-75
2021/12/15 09:32:04;;;;;;;21.77;11.93;;;10.30;99.90;;;;;;4814008;29;20054;-74
2021/12/15 09:34:30;;;;;;;21.75;11.48;;;10.30;99.90;;;;;;4801763;29;20151;-74
2021/12/15 09:36:57;;;;;;;23.17;11.38;;;10.30;99.90;;;;;;4833319;29;20050;-74
2021/12/15 09:39:24;;;;;;;21.90;12.20;;;10.30;99.90;;;;;;4817200;29;20058;-75
2021/12/15 09:41:52;;;;;;;19.80;11.32;;;10.30;99.90;;;;;;4816259;29;20050;-75
2021/12/15 09:44:22;;;;;;;20.27;11.00;;;10.30;99.90;;;;;;4802346;29;20046;-75
2021/12/15 10:03:04;;;;;;;15.18;8.25;;;10.50;99.90;;;;;;4819417;29;20054;-75
2021/12/15 10:19:38;;;;;;;15.43;8.75;;;10.70;99.90;;;;;;4822963;29;20133;-75
2021/12/15 10:22:08;;;;;;;18.88;9.05;;;10.70;99.90;;;;;;4807034;29;20062;-76
2021/12/15 10:24:47;;;;;;;19.52;9.77;;;10.70;99.90;;;;;;4838286;29;20475;-75
2021/12/15 10:27:16;;;;;;;20.55;10.15;;;10.60;99.90;;;;;;4819642;29;20361;-75
2021/12/15 10:30:08;;;;;;;17.23;10.10;;;10.50;99.90;;;;;;4813899;29;20046;-75
2021/12/15 10:32:37;;;;;;;20.20;9.65;;;10.60;99.90;;;;;;4820036;29;20175;-75
2021/12/15 10:35:17;;;;;;;17.23;9.18;;;10.50;99.90;;;;;;4814205;29;20038;-76
2021/12/15 10:38:02;;;;;;;17.95;9.57;;;10.50;99.90;;;;;;4824095;29;20073;-75
2021/12/15 10:40:28;;;;;;;15.85;8.70;;;10.50;99.90;;;;;;4819532;29;20241;-75
2021/12/15 10:43:03;;;;;;;15.20;9.05;;;10.50;99.90;;;;;;4821681;29;20117;-75
2021/12/15 10:45:43;;;;;;;14.10;9.48;;;10.50;99.90;;;;;;4812495;29;20503;-67
2021/12/15 10:48:19;;;;;;;14.07;9.25;;;10.50;99.90;;;;;;4817576;29;20110;-74
2021/12/15 10:50:48;;;;;;;16.23;9.55;;;10.50;99.90;;;;;;4818097;29;20060;-74
2021/12/15 10:53:14;;;;;;;16.58;9.07;;;10.60;99.90;;;;;;4802873;29;20137;-74
2021/12/15 10:55:40;;;;;;;15.68;9.45;;;10.60;99.90;;;;;;4802650;29;20511;-76
2021/12/15 10:58:32;;;;;;;15.05;8.85;;;10.60;99.90;;;;;;4816845;29;20486;-77
2021/12/15 11:00:58;;;;;;;13.98;8.75;;;10.60;99.90;;;;;;4832441;29;20054;-77
2021/12/15 11:03:32;;;;;;;16.73;8.38;;;10.70;99.90;;;;;;4817405;29;20039;-76
2021/12/15 11:05:57;;;;;;;19.75;9.48;;;10.60;99.90;;;;;;4815224;29;20469;-68
2021/12/15 11:08:23;;;;;;;12.55;7.85;;;10.60;99.90;;;;;;4817528;29;20046;-76
2021/12/15 11:10:51;;;;;;;20.48;9.25;;;10.60;99.90;;;;;;4818093;29;20057;-76
2021/12/15 11:13:17;;;;;;;18.67;9.60;;;10.70;99.90;;;;;;4816915;29;20133;-76
2021/12/15 11:15:49;;;;;;;18.98;9.25;;;10.70;99.90;;;;;;4817930;29;20133;-77
2021/12/15 11:18:31;;;;;;;17.75;8.52;;;10.70;99.90;;;;;;4816288;29;20538;-77
2021/12/15 11:21:08;;;;;;;14.85;8.30;;;10.70;99.90;;;;;;4814853;29;20046;-77
2021/12/15 11:23:35;;;;;;;16.50;8.73;;;10.70;99.90;;;;;;4817315;29;20058;-77
2021/12/15 11:26:07;;;;;;;14.27;8.02;;;10.80;99.90;;;;;;4816983;29;20091;-86
2021/12/15 11:28:42;;;;;;;15.88;7.82;;;10.70;99.90;;;;;;4817564;29;20054;-75
2021/12/15 11:31:15;;;;;;;14.00;7.60;;;10.70;99.90;;;;;;4815919;29;20065;-75
2021/12/15 11:33:48;;;;;;;16.10;7.80;;;10.70;99.90;;;;;;4817644;29;20074;-75
2021/12/15 11:36:22;;;;;;;12.38;6.75;;;10.80;99.90;;;;;;4814955;29;20123;-75
2021/12/15 11:38:53;;;;;;;11.57;6.90;;;10.80;99.90;;;;;;4814841;29;20165;-75
2021/12/15 11:41:21;;;;;;;11.27;6.82;;;10.80;99.90;;;;;;4812020;29;20050;-74
2021/12/15 12:24:25;;;;;;;8.80;3.03;;;10.90;99.90;;;;;;5480088;24;20133;-72
2021/12/15 12:26:51;;;;;;;5.70;2.78;;;11.00;99.90;;;;;;5332088;24;20164;-74
2021/12/15 12:46:52;;;;;;;8.13;2.97;;;10.60;99.90;;;;;;5291465;24;20837;-68
2021/12/15 13:04:39;;;;;;;8.40;2.58;;;10.60;99.90;;;;;;5318805;24;20056;-75
2021/12/15 13:07:05;;;;;;;8.75;2.80;;;10.50;99.90;;;;;;4831877;29;20574;-75
2021/12/15 13:09:45;;;;;;;6.38;2.25;;;10.50;99.90;;;;;;4845167;29;20093;-75
2021/12/15 13:12:27;;;;;;;7.25;2.53;;;10.50;99.90;;;;;;4847279;29;20129;-76
2021/12/15 13:14:56;;;;;;;6.75;2.50;;;10.60;99.90;;;;;;4852548;29;20525;-78
2021/12/15 13:17:27;;;;;;;7.90;2.45;;;10.70;99.90;;;;;;4832496;29;20064;-75
2021/12/15 13:19:55;;;;;;;5.63;1.80;;;10.60;99.90;;;;;;4837513;29;20059;-80
2021/12/15 13:22:39;;;;;;;5.38;2.05;;;10.60;99.90;;;;;;4826826;29;20052;-80
2021/12/15 13:31:15;;;;;;;7.50;2.05;;;10.70;99.90;;;;;;4845764;29;20175;-80
2021/12/15 13:33:49;;;;;;;5.40;1.80;;;10.60;99.90;;;;;;4849085;29;20064;-80
2021/12/15 13:36:37;;;;;;;5.78;1.33;;;10.60;99.90;;;;;;4843836;29;20049;-74
2021/12/15 13:39:03;;;;;;;5.10;1.40;;;10.60;99.90;;;;;;4832518;29;20040;-80
2021/12/15 13:41:43;;;;;;;4.38;1.45;;;10.60;99.90;;;;;;4833243;29;20042;-80
2021/12/15 13:44:18;;;;;;;6.03;1.50;;;10.60;99.90;;;;;;4857422;29;20148;-80
2021/12/15 13:46:51;;;;;;;5.10;1.50;;;10.50;99.90;;;;;;4831858;29;20045;-83
2021/12/15 13:49:27;;;;;;;5.53;1.58;;;10.50;99.90;;;;;;4841425;29;20382;-84
2021/12/15 13:52:19;;;;;;;4.75;1.48;;;10.40;99.90;;;;;;4828015;29;20049;-84
2021/12/15 13:54:45;;;;;;;5.05;1.40;;;10.30;99.90;;;;;;4839683;29;20085;-82
2021/12/15 13:57:14;;;;;;;5.70;1.30;;;10.30;99.90;;;;;;4825007;29;20258;-82
2021/12/15 13:59:43;;;;;;;3.63;1.35;;;10.30;99.90;;;;;;4841478;29;20439;-83
2021/12/15 14:02:30;;;;;;;5.82;1.35;;;10.20;99.90;;;;;;4841277;29;20060;-82
2021/12/15 14:05:14;;;;;;;3.95;1.33;;;10.10;99.90;;;;;;4857489;29;20390;-84
2021/12/15 14:07:45;;;;;;;3.33;1.30;;;10.10;99.90;;;;;;4814668;29;20562;-83
2021/12/15 14:10:12;;;;;;;4.93;1.23;;;9.90;99.90;;;;;;4809141;29;20049;-84
2021/12/15 14:12:47;;;;;;;3.25;1.30;;;9.80;99.90;;;;;;4841720;29;20121;-82
2021/12/15 14:15:25;;;;;;;3.75;1.20;;;9.70;99.90;;;;;;4825899;29;20186;-83
2021/12/15 14:17:58;;;;;;;3.75;1.30;;;9.60;99.90;;;;;;4837450;29;20485;-81
2021/12/15 14:20:26;;;;;;;4.38;1.45;;;9.50;99.90;;;;;;4826069;29;20074;-82
2021/12/15 14:22:56;;;;;;;3.50;1.25;;;9.50;99.90;;;;;;4841162;29;20053;-82
2021/12/15 14:25:22;;;;;;;2.80;1.23;;;9.40;99.90;;;;;;4841410;29;20071;-81
2021/12/15 14:27:48;;;;;;;4.15;1.33;;;9.40;99.90;;;;;;4826998;29;20535;-83
2021/12/15 14:30:14;;;;;;;3.92;1.40;;;9.40;99.90;;;;;;4805334;29;20197;-83
2021/12/15 14:32:44;;;;;;;3.55;1.35;;;9.30;99.90;;;;;;4833455;29;20037;-81
2021/12/15 14:35:24;;;;;;;2.35;1.30;;;9.30;99.90;;;;;;4814918;29;20046;-83
2021/12/15 14:37:50;;;;;;;4.07;1.40;;;9.40;99.90;;;;;;4831114;29;20423;-83
2021/12/15 14:40:18;;;;;;;3.75;1.27;;;9.40;99.90;;;;;;4839543;29;20140;-84
2021/12/15 14:42:44;;;;;;;4.25;1.00;;;9.40;99.90;;;;;;4840585;29;20558;-84
2021/12/15 14:45:11;;;;;;;;;;;9.40;99.90;;;;;;4807149;29;20132;-84
2021/12/15 14:47:40;;;;;;;2.22;1.20;;;9.50;99.90;;;;;;4822881;29;20060;-84
2021/12/15 14:50:13;;;;;;;4.53;1.20;;;9.50;99.90;;;;;;4839181;29;20065;-84
2021/12/15 14:52:42;;;;;;;6.53;1.60;;;9.60;99.90;;;;;;4826216;29;20090;-84
2021/12/15 14:55:29;;;;;;;4.15;1.38;;;9.60;99.90;;;;;;4827694;29;20049;-84
2021/12/15 14:57:55;;;;;;;3.90;1.25;;;9.60;99.90;;;;;;4844463;29;20052;-83
2021/12/15 15:00:31;;;;;;;3.08;1.40;;;9.60;99.90;;;;;;4844160;29;20053;-83
2021/12/15 15:03:02;;;;;;;3.83;1.30;;;9.70;99.90;;;;;;4829075;29;20562;-83
2021/12/15 15:05:41;;;;;;;4.35;1.10;;;9.70;99.90;;;;;;4828381;29;20061;-83
2021/12/15 15:08:21;;;;;;;3.72;1.30;;;9.70;99.90;;;;;;4829199;29;20049;-83
2021/12/15 15:10:47;;;;;;;2.75;1.17;;;9.70;99.90;;;;;;4844115;29;20141;-83
2021/12/15 15:13:21;;;;;;;2.75;1.20;;;9.70;99.90;;;;;;4829105;29;20058;-83
2021/12/15 15:15:50;;;;;;;2.88;0.95;;;9.70;99.90;;;;;;4829314;29;20052;-83
2021/12/15 15:18:28;;;;;;;4.35;1.10;;;9.80;99.90;;;;;;4860937;29;20049;-83
2021/12/15 15:21:08;;;;;;;5.03;1.40;;;9.70;99.90;;;;;;4837754;29;20451;-84
2021/12/15 15:23:39;;;;;;;2.92;1.10;;;9.70;99.90;;;;;;4827882;29;20077;-84
2021/12/15 15:26:10;;;;;;;2.35;1.00;;;9.70;99.90;;;;;;4827633;29;20118;-83
2021/12/15 15:28:43;;;;;;;6.22;1.20;;;9.70;99.90;;;;;;4845972;29;20042;-83
2021/12/15 15:31:14;;;;;;;3.38;1.23;;;9.70;99.90;;;;;;4823697;29;20067;-82
2021/12/15 15:33:41;;;;;;;3.78;0.98;;;9.70;99.90;;;;;;4840152;29;20113;-82
2021/12/15 15:36:13;;;;;;;2.67;1.00;;;9.70;99.90;;;;;;4823890;29;20529;-81
2021/12/15 15:38:47;;;;;;;3.20;1.08;;;9.70;99.90;;;;;;4811495;29;20042;-82
2021/12/15 15:41:23;;;;;;;4.80;1.50;;;9.70;99.90;;;;;;4821976;29;20056;-82
2021/12/15 15:43:53;;;;;;;3.72;1.05;;;9.70;99.90;;;;;;4823914;29;20399;-83
2021/12/15 15:46:22;;;;;;;4.93;1.40;;;9.60;99.90;;;;;;4840638;29;20122;-83
2021/12/15 15:48:50;;;;;;;3.88;1.15;;;9.60;99.90;;;;;;4843498;29;20061;-82
2021/12/15 15:51:24;;;;;;;2.75;1.08;;;9.70;99.90;;;;;;4827089;29;20046;-83
2021/12/15 15:53:56;;;;;;;3.70;1.10;;;9.70;99.90;;;;;;4827149;29;20054;-83
2021/12/15 15:56:26;;;;;;;2.40;1.20;;;9.60;99.90;;;;;;4826423;29;20124;-83
2021/12/15 15:59:00;;;;;;;2.03;1.05;;;9.70;99.90;;;;;;4826781;29;20089;-83
2021/12/15 16:01:28;;;;;;;4.30;1.10;;;9.60;99.90;;;;;;4825994;29;20082;-82
2021/12/15 16:03:56;;;;;;;2.47;0.90;;;9.70;99.90;;;;;;4812229;29;20121;-82
2021/12/15 16:06:24;;;;;;;5.30;1.40;;;9.70;99.90;;;;;;4810773;29;20058;-83
2021/12/15 16:08:53;;;;;;;2.30;1.10;;;9.70;99.90;;;;;;4827045;29;20702;-83